createdAt,value
2018-04-01T01:39:28.971Z,2.59
2018-04-01T01:39:29.486Z,2.64
2018-04-01T01:39:30.085Z,2.67
2018-04-01T01:39:30.684Z,2.66
2018-04-01T01:39:31.284Z,2.66
2018-04-01T01:39:31.885Z,2.63
2018-04-01T01:39:32.484Z,2.63
2018-04-01T01:40:26.002Z,2.70
2018-04-01T01:40:26.585Z,2.63
2018-04-01T01:40:27.173Z,2.67
2018-04-01T01:40:27.775Z,2.59
2018-04-01T01:40:28.371Z,2.66
2018-04-01T01:40:28.972Z,2.66
2018-04-01T01:40:29.574Z,2.55
2018-04-01T01:40:30.170Z,2.63
2018-04-01T01:41:25.190Z,2.59
2018-04-01T01:41:25.763Z,2.69
2018-04-01T01:41:26.362Z,2.59
2018-04-01T01:41:26.964Z,2.70
2018-04-01T01:41:27.561Z,2.61
2018-04-01T01:41:28.162Z,2.66
2018-04-01T01:41:28.763Z,2.61
2018-04-01T01:42:22.229Z,2.53
2018-04-01T01:42:22.802Z,2.64
2018-04-01T01:42:23.401Z,2.66
2018-04-01T01:42:24.002Z,2.67
2018-04-01T01:42:24.599Z,2.67
2018-04-01T01:42:25.200Z,2.69
2018-04-01T01:42:25.800Z,2.61
2018-04-01T01:42:26.400Z,2.66
2018-04-01T01:43:42.407Z,2.64
2018-04-01T01:43:42.980Z,2.63
2018-04-01T01:43:43.592Z,2.63
2018-04-01T01:43:44.182Z,2.63
2018-04-01T01:43:44.783Z,2.69
2018-04-01T01:43:45.378Z,2.69
2018-04-01T01:44:44.361Z,2.64
2018-04-01T01:44:44.934Z,2.70
2018-04-01T01:44:45.534Z,2.71
2018-04-01T01:44:46.134Z,2.66
2018-04-01T01:44:46.734Z,2.70
2018-04-01T01:44:47.332Z,2.67
2018-04-01T01:44:47.933Z,2.73
2018-04-01T01:44:48.533Z,2.70
2018-04-01T01:44:49.133Z,2.70
2018-04-01T01:44:49.737Z,2.63
2018-04-01T01:44:50.333Z,2.71
2018-04-01T01:44:50.931Z,2.66
2018-04-01T01:44:51.531Z,2.61
2018-04-01T01:44:52.132Z,2.69
2018-04-01T01:44:52.730Z,2.66
2018-04-01T01:44:53.331Z,2.66
2018-04-01T01:44:53.930Z,2.70
2018-04-01T01:45:58.500Z,2.64
2018-04-01T01:45:59.073Z,2.73
2018-04-01T01:45:59.672Z,2.73
2018-04-01T01:46:00.273Z,2.73
2018-04-01T01:46:00.871Z,2.73
2018-04-01T01:46:01.471Z,2.71
2018-04-01T01:46:02.077Z,2.73
2018-04-01T01:47:08.233Z,2.73
2018-04-01T01:47:09.624Z,2.73
2018-04-01T01:47:10.140Z,2.73
2018-04-01T01:47:10.739Z,2.74
2018-04-01T01:47:11.339Z,2.70
2018-04-01T01:47:11.940Z,2.76
2018-04-01T01:47:12.538Z,2.74
2018-04-01T01:48:06.093Z,2.74
2018-04-01T01:48:06.666Z,2.71
2018-04-01T01:48:07.266Z,2.76
2018-04-01T01:48:07.865Z,2.70
2018-04-01T01:48:08.465Z,2.74
2018-04-01T01:48:09.064Z,2.77
2018-04-01T01:48:09.671Z,2.74
2018-04-01T01:48:10.264Z,2.70
2018-04-01T01:49:04.253Z,2.76
2018-04-01T01:49:04.834Z,2.74
2018-04-01T01:49:05.427Z,2.73
2018-04-01T01:49:06.032Z,2.74
2018-04-01T01:49:06.627Z,2.73
2018-04-01T01:49:07.226Z,2.82
2018-04-01T01:49:07.826Z,2.81
2018-04-01T01:50:01.300Z,2.71
2018-04-01T01:50:01.869Z,2.79
2018-04-01T01:50:02.466Z,2.81
2018-04-01T01:50:03.066Z,2.79
2018-04-01T01:50:03.664Z,2.82
2018-04-01T01:50:04.266Z,2.71
2018-04-01T01:50:04.865Z,2.79
2018-04-01T01:50:05.465Z,2.71
2018-04-01T01:50:58.993Z,2.82
2018-04-01T01:50:59.519Z,2.79
2018-04-01T01:51:00.119Z,2.76
2018-04-01T01:51:00.719Z,2.77
2018-04-01T01:51:01.319Z,2.73
2018-04-01T01:51:01.918Z,2.84
2018-04-01T01:51:02.517Z,2.85
2018-04-01T01:51:03.118Z,2.77
2018-04-01T01:51:56.594Z,2.79
2018-04-01T01:51:57.171Z,2.77
2018-04-01T01:51:57.770Z,2.79
2018-04-01T01:51:58.424Z,2.89
2018-04-01T01:51:58.969Z,2.81
2018-04-01T01:51:59.569Z,2.81
2018-04-01T01:52:00.169Z,2.84
2018-04-01T01:52:00.766Z,2.84
2018-04-01T01:52:54.247Z,2.81
2018-04-01T01:52:54.821Z,2.84
2018-04-01T01:52:55.421Z,2.82
2018-04-01T01:52:56.022Z,2.81
2018-04-01T01:52:56.620Z,2.85
2018-04-01T01:52:57.222Z,2.85
2018-04-01T01:52:57.821Z,2.88
2018-04-01T01:52:58.420Z,2.81
2018-04-01T01:53:51.900Z,2.81
2018-04-01T01:53:52.472Z,2.77
2018-04-01T01:53:53.072Z,2.91
2018-04-01T01:53:53.673Z,2.85
2018-04-01T01:53:54.271Z,2.87
2018-04-01T01:53:54.871Z,2.84
2018-04-01T01:53:55.472Z,2.84
2018-04-01T01:53:56.071Z,2.87
2018-04-01T01:54:50.062Z,2.81
2018-04-01T01:54:50.637Z,2.88
2018-04-01T01:54:51.236Z,2.87
2018-04-01T01:54:51.842Z,2.77
2018-04-01T01:54:52.441Z,2.84
2018-04-01T01:54:53.035Z,2.82
2018-04-01T01:54:53.637Z,2.79
2018-04-01T01:55:50.170Z,2.85
2018-04-01T01:55:50.757Z,2.85
2018-04-01T01:55:51.345Z,2.92
2018-04-01T01:56:46.389Z,2.85
2018-04-01T01:56:46.963Z,2.89
2018-04-01T01:56:47.564Z,2.94
2018-04-01T01:56:48.163Z,2.92
2018-04-01T01:56:48.763Z,2.85
2018-04-01T01:56:49.361Z,2.84
2018-04-01T01:56:49.986Z,2.91
2018-04-01T01:57:43.530Z,2.92
2018-04-01T01:57:44.106Z,2.94
2018-04-01T01:57:44.706Z,2.89
2018-04-01T01:57:45.303Z,2.94
2018-04-01T01:57:45.903Z,2.91
2018-04-01T01:57:46.503Z,2.94
2018-04-01T01:57:47.103Z,2.95
2018-04-01T01:57:47.703Z,2.92
2018-04-01T01:58:41.182Z,2.85
2018-04-01T01:58:41.756Z,2.91
2018-04-01T01:58:42.355Z,2.97
2018-04-01T01:58:42.956Z,2.92
2018-04-01T01:58:43.555Z,2.92
2018-04-01T01:58:44.155Z,2.95
2018-04-01T01:58:44.757Z,2.92
2018-04-01T01:58:45.355Z,2.91
2018-04-01T01:59:39.868Z,2.97
2018-04-01T01:59:40.431Z,2.94
2018-04-01T01:59:41.043Z,2.95
2018-04-01T01:59:41.633Z,2.97
2018-04-01T01:59:42.230Z,2.98
2018-04-01T01:59:42.829Z,2.98
2018-04-01T01:59:43.429Z,2.97
2018-04-01T01:59:44.030Z,2.89
2018-04-01T02:00:38.602Z,3.00
2018-04-01T02:00:39.116Z,2.97
2018-04-01T02:00:39.721Z,3.05
2018-04-01T02:00:40.317Z,2.97
2018-04-01T02:00:40.914Z,2.97
2018-04-01T02:00:41.512Z,3.02
2018-04-01T02:00:42.113Z,2.98
2018-04-01T02:00:42.712Z,3.06
2018-04-01T02:01:36.185Z,2.98
2018-04-01T02:01:36.762Z,2.95
2018-04-01T02:01:37.358Z,2.97
2018-04-01T02:01:37.964Z,3.00
2018-04-01T02:01:38.558Z,3.07
2018-04-01T02:01:39.174Z,3.06
2018-04-01T02:01:39.759Z,2.98
2018-04-01T02:01:40.358Z,3.10
2018-04-01T02:02:34.870Z,3.00
2018-04-01T02:02:35.438Z,3.05
2018-04-01T02:02:36.036Z,3.03
2018-04-01T02:02:36.633Z,3.03
2018-04-01T02:02:37.233Z,3.03
2018-04-01T02:02:37.840Z,3.06
2018-04-01T02:02:38.433Z,3.09
2018-04-01T02:02:39.032Z,3.07
2018-04-01T02:03:44.083Z,3.07
2018-04-01T02:03:44.663Z,3.16
2018-04-01T02:03:45.257Z,3.10
2018-04-01T02:03:45.857Z,3.10
2018-04-01T02:03:46.456Z,3.09
2018-04-01T02:03:47.056Z,3.13
2018-04-01T02:03:47.656Z,3.03
2018-04-01T02:04:42.665Z,3.05
2018-04-01T02:04:43.231Z,3.06
2018-04-01T02:04:43.830Z,3.10
2018-04-01T02:04:44.431Z,3.13
2018-04-01T02:04:45.030Z,3.12
2018-04-01T02:04:45.630Z,3.10
2018-04-01T02:04:46.231Z,3.10
2018-04-01T02:05:41.228Z,3.07
2018-04-01T02:05:41.804Z,3.10
2018-04-01T02:05:42.404Z,3.10
2018-04-01T02:05:43.004Z,3.09
2018-04-01T02:05:43.603Z,3.09
2018-04-01T02:05:44.202Z,3.12
2018-04-01T02:06:42.282Z,3.12
2018-04-01T02:06:42.837Z,3.15
2018-04-01T02:06:43.434Z,3.12
2018-04-01T02:07:37.965Z,3.20
2018-04-01T02:07:38.547Z,3.16
2018-04-01T02:07:39.139Z,3.16
2018-04-01T02:07:39.746Z,3.20
2018-04-01T02:07:40.341Z,3.23
2018-04-01T02:07:40.939Z,3.16
2018-04-01T02:07:41.540Z,3.24
2018-04-01T02:07:42.140Z,3.20
2018-04-01T02:08:36.134Z,3.24
2018-04-01T02:08:36.703Z,3.21
2018-04-01T02:08:37.303Z,3.27
2018-04-01T02:08:37.903Z,3.23
2018-04-01T02:08:38.502Z,3.25
2018-04-01T02:08:39.103Z,3.21
2018-04-01T02:08:39.703Z,3.25
2018-04-01T02:09:33.679Z,3.20
2018-04-01T02:09:34.253Z,3.21
2018-04-01T02:09:34.853Z,3.28
2018-04-01T02:09:35.453Z,3.21
2018-04-01T02:09:36.053Z,3.24
2018-04-01T02:09:36.653Z,3.24
2018-04-01T02:09:37.253Z,3.24
2018-04-01T02:10:31.740Z,3.20
2018-04-01T02:10:32.314Z,3.20
2018-04-01T02:10:32.913Z,3.24
2018-04-01T02:10:33.514Z,3.24
2018-04-01T02:10:34.115Z,3.31
2018-04-01T02:10:34.714Z,3.28
2018-04-01T02:10:35.312Z,3.27
2018-04-01T02:10:35.913Z,3.30
2018-04-01T02:11:29.905Z,3.30
2018-04-01T02:11:30.479Z,3.28
2018-04-01T02:11:31.082Z,3.25
2018-04-01T02:11:31.679Z,3.28
2018-04-01T02:11:32.278Z,3.30
2018-04-01T02:11:32.880Z,3.28
2018-04-01T02:11:33.477Z,3.31
2018-04-01T02:12:28.479Z,3.30
2018-04-01T02:12:29.052Z,3.30
2018-04-01T02:12:29.651Z,3.33
2018-04-01T02:12:30.253Z,3.36
2018-04-01T02:12:30.851Z,3.36
2018-04-01T02:12:31.452Z,3.36
2018-04-01T02:12:32.050Z,3.40
2018-04-01T02:13:26.029Z,3.30
2018-04-01T02:13:26.601Z,3.33
2018-04-01T02:13:27.200Z,3.28
2018-04-01T02:13:27.800Z,3.31
2018-04-01T02:13:28.400Z,3.30
2018-04-01T02:13:29.000Z,3.33
2018-04-01T02:13:29.599Z,3.30
2018-04-01T02:14:23.579Z,3.31
2018-04-01T02:14:24.156Z,3.33
2018-04-01T02:14:24.752Z,3.36
2018-04-01T02:14:25.349Z,3.31
2018-04-01T02:14:25.949Z,3.27
2018-04-01T02:14:26.549Z,3.34
2018-04-01T02:14:27.149Z,3.39
2018-04-01T02:15:21.125Z,3.31
2018-04-01T02:15:21.706Z,3.30
2018-04-01T02:15:22.298Z,3.28
2018-04-01T02:15:22.900Z,3.31
2018-04-01T02:15:23.498Z,3.28
2018-04-01T02:15:24.098Z,3.28
2018-04-01T02:15:24.702Z,3.33
2018-04-01T02:16:19.187Z,3.27
2018-04-01T02:16:19.773Z,3.28
2018-04-01T02:16:20.359Z,3.25
2018-04-01T02:16:20.962Z,3.23
2018-04-01T02:16:21.560Z,3.30
2018-04-01T02:16:22.163Z,3.25
2018-04-01T02:16:22.760Z,3.27
2018-04-01T02:16:23.360Z,3.33
2018-04-01T02:17:19.397Z,3.15
2018-04-01T02:17:19.972Z,3.23
2018-04-01T02:17:20.583Z,3.30
2018-04-01T02:17:21.171Z,3.28
2018-04-01T02:17:21.772Z,3.31
2018-04-01T02:17:22.371Z,3.28
2018-04-01T02:18:17.357Z,3.27
2018-04-01T02:18:17.931Z,3.23
2018-04-01T02:18:18.530Z,3.27
2018-04-01T02:18:19.130Z,3.25
2018-04-01T02:18:19.734Z,3.30
2018-04-01T02:18:20.331Z,3.30
2018-04-01T02:18:20.929Z,3.28
2018-04-01T02:18:21.529Z,3.28
2018-04-01T02:19:17.600Z,3.27
2018-04-01T02:19:18.146Z,3.28
2018-04-01T02:19:18.743Z,3.33
2018-04-01T02:19:19.342Z,3.30
2018-04-01T02:19:19.944Z,3.25
2018-04-01T02:19:20.545Z,3.30
2018-04-01T02:20:16.043Z,3.28
2018-04-01T02:20:16.616Z,3.33
2018-04-01T02:20:17.216Z,3.34
2018-04-01T02:20:17.818Z,3.31
2018-04-01T02:20:18.414Z,3.33
2018-04-01T02:20:19.013Z,3.31
2018-04-01T02:21:13.078Z,3.27
2018-04-01T02:21:13.653Z,3.31
2018-04-01T02:21:14.251Z,3.33
2018-04-01T02:21:14.851Z,3.33
2018-04-01T02:21:15.450Z,3.33
2018-04-01T02:21:16.052Z,3.33
2018-04-01T02:21:16.651Z,3.31
2018-04-01T02:21:17.252Z,3.27
2018-04-01T02:22:11.243Z,3.30
2018-04-01T02:22:11.816Z,3.31
2018-04-01T02:22:12.414Z,3.34
2018-04-01T02:22:13.014Z,3.33
2018-04-01T02:22:13.615Z,3.30
2018-04-01T02:22:14.215Z,3.36
2018-04-01T02:22:14.815Z,3.31
2018-04-01T02:23:08.380Z,3.40
2018-04-01T02:23:08.956Z,3.36
2018-04-01T02:23:09.559Z,3.28
2018-04-01T02:23:10.164Z,3.30
2018-04-01T02:23:10.755Z,3.39
2018-04-01T02:23:11.355Z,3.33
2018-04-01T02:23:11.955Z,3.40
2018-04-01T02:23:12.555Z,3.30
2018-04-01T02:24:06.038Z,3.30
2018-04-01T02:24:06.609Z,3.34
2018-04-01T02:24:07.205Z,3.39
2018-04-01T02:24:07.806Z,3.40
2018-04-01T02:24:08.408Z,3.34
2018-04-01T02:24:09.005Z,3.28
2018-04-01T02:24:09.606Z,3.40
2018-04-01T02:24:10.205Z,3.46
2018-04-01T02:25:05.220Z,3.31
2018-04-01T02:25:05.794Z,3.42
2018-04-01T02:25:06.393Z,3.42
2018-04-01T02:25:06.992Z,3.49
2018-04-01T02:25:07.595Z,3.44
2018-04-01T02:25:08.193Z,3.46
2018-04-01T02:26:03.692Z,3.47
2018-04-01T02:26:04.265Z,3.40
2018-04-01T02:26:04.865Z,3.46
2018-04-01T02:26:05.466Z,3.44
2018-04-01T02:26:06.064Z,3.42
2018-04-01T02:26:06.666Z,3.39
2018-04-01T02:27:01.650Z,3.39
2018-04-01T02:27:02.228Z,3.46
2018-04-01T02:27:02.823Z,3.47
2018-04-01T02:27:03.423Z,3.39
2018-04-01T02:27:04.023Z,3.54
2018-04-01T02:27:04.623Z,3.42
2018-04-01T02:27:05.222Z,3.52
2018-04-01T02:27:05.824Z,3.44
2018-04-01T02:28:00.325Z,3.42
2018-04-01T02:28:00.900Z,3.50
2018-04-01T02:28:01.499Z,3.46
2018-04-01T02:28:02.100Z,3.50
2018-04-01T02:28:02.698Z,3.49
2018-04-01T02:28:03.298Z,3.53
2018-04-01T02:28:03.898Z,3.47
2018-04-01T02:28:04.498Z,3.47
2018-04-01T02:28:59.512Z,3.43
2018-04-01T02:29:00.090Z,3.50
2018-04-01T02:29:00.688Z,3.49
2018-04-01T02:29:01.287Z,3.52
2018-04-01T02:29:01.886Z,3.42
2018-04-01T02:29:02.487Z,3.50
2018-04-01T02:29:03.086Z,3.44
2018-04-01T02:29:58.085Z,3.54
2018-04-01T02:29:58.660Z,3.52
2018-04-01T02:29:59.263Z,3.54
2018-04-01T02:29:59.860Z,3.54
2018-04-01T02:30:00.469Z,3.53
2018-04-01T02:30:01.060Z,3.47
2018-04-01T02:30:01.661Z,3.50
2018-04-01T02:30:55.227Z,3.44
2018-04-01T02:30:55.810Z,3.49
2018-04-01T02:30:56.401Z,3.52
2018-04-01T02:30:57.001Z,3.46
2018-04-01T02:30:57.604Z,3.53
2018-04-01T02:30:58.201Z,3.57
2018-04-01T02:30:58.804Z,3.49
2018-04-01T02:30:59.399Z,3.52
2018-04-01T02:31:54.415Z,3.49
2018-04-01T02:31:54.997Z,3.50
2018-04-01T02:31:55.589Z,3.47
2018-04-01T02:31:56.188Z,3.50
2018-04-01T02:31:56.787Z,3.53
2018-04-01T02:31:57.390Z,3.53
2018-04-01T02:32:54.423Z,3.58
2018-04-01T02:32:55.002Z,3.52
2018-04-01T02:32:55.595Z,3.52
2018-04-01T02:33:50.640Z,3.54
2018-04-01T02:33:51.230Z,3.49
2018-04-01T02:33:51.812Z,3.54
2018-04-01T02:33:52.414Z,3.50
2018-04-01T02:33:53.012Z,3.44
2018-04-01T02:33:53.613Z,3.47
2018-04-01T02:33:54.212Z,3.47
2018-04-01T02:34:50.748Z,3.47
2018-04-01T02:34:51.323Z,3.46
2018-04-01T02:34:51.924Z,3.44
2018-04-01T02:52:54.642Z,2.89
2018-04-01T02:52:55.158Z,2.97
2018-04-01T02:52:55.756Z,2.98
2018-04-01T02:52:56.367Z,2.97
2018-04-01T02:52:56.957Z,2.95
2018-04-01T02:52:57.560Z,2.97
2018-04-01T02:55:19.854Z,2.82
2018-04-01T02:55:21.101Z,2.88
2018-04-01T02:55:21.626Z,2.85
2018-04-01T02:55:22.214Z,2.84
2018-04-01T02:55:22.821Z,2.88
2018-04-01T02:55:23.413Z,2.87
2018-04-01T02:55:24.018Z,2.82
2018-04-01T02:55:24.615Z,2.85
2018-04-01T02:55:25.219Z,2.84
2018-04-01T02:55:25.812Z,2.84
2018-04-01T02:55:26.411Z,2.89
2018-04-01T02:56:25.509Z,2.85
2018-04-01T02:56:26.076Z,2.95
2018-04-01T02:56:26.677Z,2.88
2018-04-01T02:56:27.275Z,2.85
2018-04-01T02:56:27.874Z,2.89
2018-04-01T02:56:28.474Z,2.88
2018-04-01T02:56:29.073Z,2.89
2018-04-01T02:56:29.673Z,2.82
2018-04-01T02:56:30.272Z,2.87
2018-04-01T02:56:30.873Z,2.91
2018-04-01T02:56:31.474Z,2.89
2018-04-01T02:56:32.072Z,2.91
2018-04-01T02:56:32.673Z,2.91
2018-04-01T02:56:33.271Z,2.88
2018-04-01T02:56:33.873Z,2.85
2018-04-01T02:56:34.472Z,2.88
2018-04-01T02:57:52.961Z,2.87
2018-04-01T02:57:53.529Z,2.84
2018-04-01T02:57:54.125Z,2.84
2018-04-01T02:57:54.752Z,2.85
2018-04-01T02:57:55.325Z,2.82
2018-04-01T02:57:55.925Z,2.88
2018-04-01T02:57:56.525Z,2.84
2018-04-01T02:57:57.124Z,2.87
2018-04-01T02:57:57.724Z,2.92
2018-04-01T02:57:58.325Z,2.81
2018-04-01T02:57:58.923Z,2.91
2018-04-01T02:57:59.524Z,2.94
2018-04-01T02:58:00.125Z,2.81
2018-04-01T02:58:00.725Z,2.82
2018-04-01T02:58:01.323Z,2.89
2018-04-01T02:58:01.937Z,2.79
2018-04-01T04:07:14.363Z,2.81
2018-04-01T04:07:14.889Z,2.85
2018-04-01T04:07:15.489Z,2.82
2018-04-01T04:07:16.090Z,2.79
2018-04-01T04:07:16.688Z,2.84
2018-04-01T04:07:17.288Z,2.81
2018-04-01T04:07:17.886Z,2.88
2018-04-01T04:07:18.489Z,2.81
2018-04-01T04:08:44.530Z,2.81
2018-04-01T04:08:45.104Z,2.79
2018-04-01T04:08:45.702Z,2.84
2018-04-01T04:08:46.303Z,2.79
2018-04-01T04:09:40.341Z,2.67
2018-04-01T04:09:40.913Z,2.81
2018-04-01T04:09:41.511Z,2.79
2018-04-01T04:09:42.113Z,2.70
2018-04-01T04:09:42.711Z,2.73
2018-04-01T04:09:43.311Z,2.67
2018-04-01T04:09:43.913Z,2.77
2018-04-01T04:10:45.876Z,2.69
2018-04-01T04:10:46.449Z,2.70
2018-04-01T04:10:47.048Z,2.67
2018-04-01T04:10:47.647Z,2.67
2018-04-01T04:10:48.248Z,2.74
2018-04-01T04:10:48.847Z,2.74
2018-04-01T04:10:49.447Z,2.76
2018-04-01T04:10:50.093Z,2.71
2018-04-01T04:10:50.654Z,2.70
2018-04-01T04:10:51.246Z,2.76
2018-04-01T04:10:51.845Z,2.71
2018-04-01T04:10:52.445Z,2.73
2018-04-01T04:11:46.916Z,2.74
2018-04-01T04:11:47.481Z,2.74
2018-04-01T04:11:48.080Z,2.73
2018-04-01T04:11:48.680Z,2.70
2018-04-01T04:11:49.279Z,2.76
2018-04-01T04:11:49.880Z,2.71
2018-04-01T04:11:50.479Z,2.76
2018-04-01T04:11:51.100Z,2.74
2018-04-01T04:12:56.239Z,2.71
2018-04-01T04:12:56.805Z,2.74
2018-04-01T04:12:57.405Z,2.74
2018-04-01T04:12:58.005Z,2.74
2018-04-01T04:12:58.605Z,2.70
2018-04-01T04:14:16.633Z,2.71
2018-04-01T04:14:17.148Z,2.66
2018-04-01T04:14:17.748Z,2.73
2018-04-01T04:14:18.347Z,2.74
2018-04-01T04:14:18.948Z,2.76
2018-04-01T04:14:19.546Z,2.70
2018-04-01T04:14:20.150Z,2.70
2018-04-01T04:14:20.745Z,2.73
2018-04-01T04:14:21.345Z,2.70
2018-04-01T04:14:21.945Z,2.76
2018-04-01T04:14:22.544Z,2.71
2018-04-01T04:14:23.144Z,2.74
2018-04-01T04:14:23.744Z,2.70
2018-04-01T04:14:24.343Z,2.71
2018-04-01T04:14:24.945Z,2.71
2018-04-01T04:14:25.592Z,2.70
2018-04-01T04:14:26.143Z,2.71
2018-04-01T04:15:39.052Z,2.70
2018-04-01T04:15:39.626Z,2.79
2018-04-01T04:15:40.226Z,2.76
2018-04-01T04:15:40.824Z,2.71
2018-04-01T04:15:41.424Z,2.70
2018-04-01T04:15:42.024Z,2.66
2018-04-01T04:15:42.624Z,2.73
2018-04-01T04:15:43.223Z,2.77
2018-04-01T04:16:38.240Z,2.70
2018-04-01T04:16:38.813Z,2.71
2018-04-01T04:16:39.411Z,2.70
2018-04-01T04:16:40.013Z,2.71
2018-04-01T04:16:40.612Z,2.82
2018-04-01T04:16:41.211Z,2.70
2018-04-01T04:16:41.813Z,2.82
2018-04-01T04:17:35.329Z,2.79
2018-04-01T04:17:35.868Z,2.84
2018-04-01T04:17:36.479Z,2.84
2018-04-01T04:17:37.107Z,2.79
2018-04-01T04:17:37.652Z,2.79
2018-04-01T04:17:38.274Z,2.81
2018-04-01T04:17:38.851Z,2.82
2018-04-01T04:17:39.449Z,2.81
2018-04-01T04:18:33.039Z,2.81
2018-04-01T04:18:33.604Z,2.87
2018-04-01T04:18:34.209Z,2.84
2018-04-01T04:18:34.804Z,2.87
2018-04-01T04:18:35.404Z,2.91
2018-04-01T04:18:36.006Z,2.87
2018-04-01T04:18:36.605Z,2.79
2018-04-01T04:18:37.203Z,2.81
2018-04-01T04:19:32.220Z,2.84
2018-04-01T04:19:32.790Z,2.88
2018-04-01T04:19:33.393Z,2.84
2018-04-01T04:19:33.990Z,2.84
2018-04-01T04:19:34.590Z,2.74
2018-04-01T04:19:35.190Z,2.87
2018-04-01T04:19:35.790Z,2.82
2018-04-01T04:20:29.254Z,2.79
2018-04-01T04:20:29.829Z,2.85
2018-04-01T04:20:30.431Z,2.77
2018-04-01T04:20:31.029Z,2.89
2018-04-01T04:20:31.627Z,2.81
2018-04-01T04:20:32.227Z,2.87
2018-04-01T04:20:32.827Z,2.84
2018-04-01T04:20:33.427Z,2.85
2018-04-01T04:21:26.906Z,2.81
2018-04-01T04:21:27.491Z,2.92
2018-04-01T04:21:28.080Z,2.87
2018-04-01T04:21:28.687Z,2.91
2018-04-01T04:21:29.280Z,2.89
2018-04-01T04:21:29.880Z,2.92
2018-04-01T04:21:30.480Z,2.89
2018-04-01T04:21:31.080Z,2.89
2018-04-01T04:22:24.559Z,2.84
2018-04-01T04:22:25.134Z,2.73
2018-04-01T04:22:25.731Z,2.91
2018-04-01T04:22:26.330Z,2.87
2018-04-01T04:22:26.933Z,2.77
2018-04-01T04:22:27.531Z,2.81
2018-04-01T04:22:28.130Z,2.73
2018-04-01T04:22:28.731Z,2.94
2018-04-01T04:23:22.210Z,2.84
2018-04-01T04:23:22.783Z,2.84
2018-04-01T04:23:23.383Z,2.85
2018-04-01T04:23:23.983Z,2.87
2018-04-01T04:23:24.583Z,2.91
2018-04-01T04:23:25.184Z,2.89
2018-04-01T04:23:25.783Z,2.91
2018-04-01T04:23:26.384Z,2.87
2018-04-01T04:24:20.948Z,2.84
2018-04-01T04:24:21.463Z,2.79
2018-04-01T04:24:22.060Z,2.85
2018-04-01T04:24:22.659Z,2.84
2018-04-01T04:24:23.260Z,2.79
2018-04-01T04:24:23.860Z,2.82
2018-04-01T04:24:24.461Z,2.85
2018-04-01T04:24:25.060Z,2.87
2018-04-01T04:25:18.537Z,2.85
2018-04-01T04:25:19.113Z,2.76
2018-04-01T04:25:19.711Z,2.91
2018-04-01T04:25:20.310Z,2.89
2018-04-01T04:25:20.911Z,2.82
2018-04-01T04:25:21.512Z,2.85
2018-04-01T04:25:22.110Z,2.88
2018-04-01T04:25:22.710Z,2.87
2018-04-01T04:26:17.212Z,2.87
2018-04-01T04:26:17.786Z,2.84
2018-04-01T04:26:18.386Z,2.85
2018-04-01T04:26:18.986Z,2.74
2018-04-01T04:26:19.586Z,2.87
2018-04-01T04:26:20.186Z,2.89
2018-04-01T04:26:20.785Z,2.87
2018-04-01T04:26:21.385Z,2.88
2018-04-01T04:27:16.398Z,2.82
2018-04-01T04:27:16.976Z,2.87
2018-04-01T04:27:17.574Z,2.82
2018-04-01T04:27:18.173Z,2.89
2018-04-01T04:27:18.773Z,2.76
2018-04-01T04:27:19.372Z,2.87
2018-04-01T04:29:32.962Z,2.85
2018-04-01T04:29:33.478Z,2.85
2018-04-01T04:29:34.075Z,2.88
2018-04-01T04:29:34.676Z,2.85
2018-04-01T04:29:35.275Z,2.89
2018-04-01T04:29:35.874Z,2.81
2018-04-01T04:29:36.475Z,2.82
2018-04-01T04:29:37.076Z,2.87
2018-04-01T04:29:37.673Z,2.87
2018-04-01T04:29:38.275Z,2.91
2018-04-01T04:29:38.874Z,2.89
2018-04-01T04:30:36.908Z,2.89
2018-04-01T04:30:37.488Z,2.87
2018-04-01T04:30:38.076Z,2.89
2018-04-01T04:31:31.585Z,2.82
2018-04-01T04:31:32.161Z,2.81
2018-04-01T04:31:32.765Z,2.94
2018-04-01T04:31:33.357Z,2.85
2018-04-01T04:31:33.958Z,2.87
2018-04-01T04:31:34.557Z,2.81
2018-04-01T04:31:35.159Z,2.88
2018-04-01T04:31:35.756Z,2.91
2018-04-01T04:32:29.236Z,2.82
2018-04-01T04:32:29.812Z,2.91
2018-04-01T04:32:30.416Z,2.87
2018-04-01T04:32:31.014Z,2.89
2018-04-01T04:32:31.608Z,2.87
2018-04-01T04:32:32.209Z,2.85
2018-04-01T04:32:32.809Z,2.84
2018-04-01T04:32:33.407Z,2.89
2018-04-01T04:33:27.912Z,2.84
2018-04-01T04:33:28.487Z,2.81
2018-04-01T04:33:29.088Z,2.82
2018-04-01T04:33:29.684Z,2.85
2018-04-01T04:33:30.284Z,2.87
2018-04-01T04:33:30.884Z,2.73
2018-04-01T04:33:31.482Z,2.89
2018-04-01T04:33:32.083Z,2.81
2018-04-01T04:34:25.564Z,2.74
2018-04-01T04:34:26.139Z,2.88
2018-04-01T04:34:26.737Z,2.91
2018-04-01T04:34:27.336Z,2.88
2018-04-01T04:34:27.936Z,2.82
2018-04-01T04:34:28.537Z,2.87
2018-04-01T04:34:29.139Z,2.77
2018-04-01T04:34:29.736Z,2.76
2018-04-01T04:35:23.216Z,2.91
2018-04-01T04:35:23.790Z,2.84
2018-04-01T04:35:24.389Z,2.91
2018-04-01T04:35:24.988Z,2.89
2018-04-01T04:35:25.587Z,2.89
2018-04-01T04:35:26.187Z,2.88
2018-04-01T04:35:26.788Z,2.84
2018-04-01T04:35:27.387Z,2.85
2018-04-01T04:36:20.867Z,2.95
2018-04-01T04:36:21.440Z,2.87
2018-04-01T04:36:22.039Z,2.89
2018-04-01T04:36:22.638Z,2.91
2018-04-01T04:36:23.240Z,2.95
2018-04-01T04:36:23.839Z,2.88
2018-04-01T04:36:24.473Z,2.85
2018-04-01T04:36:25.064Z,2.85
2018-04-01T04:37:19.549Z,2.84
2018-04-01T04:37:20.116Z,2.88
2018-04-01T04:37:20.715Z,2.89
2018-04-01T04:37:21.315Z,2.81
2018-04-01T04:37:21.914Z,2.82
2018-04-01T04:37:22.514Z,2.87
2018-04-01T04:37:23.118Z,2.91
2018-04-01T04:37:23.714Z,2.79
2018-04-01T04:38:17.193Z,2.91
2018-04-01T04:38:17.770Z,2.88
2018-04-01T04:38:18.370Z,2.87
2018-04-01T04:38:18.967Z,2.85
2018-04-01T04:38:19.567Z,2.85
2018-04-01T04:38:20.167Z,2.81
2018-04-01T04:38:20.766Z,2.94
2018-04-01T04:38:21.366Z,2.87
2018-04-01T04:39:14.853Z,2.91
2018-04-01T04:39:15.421Z,2.91
2018-04-01T04:39:16.019Z,2.87
2018-04-01T04:39:16.618Z,2.85
2018-04-01T04:39:17.222Z,2.85
2018-04-01T04:39:17.820Z,2.89
2018-04-01T04:39:18.418Z,2.85
2018-04-01T04:39:19.019Z,2.85
2018-04-01T04:40:12.508Z,2.88
2018-04-01T04:40:13.072Z,2.87
2018-04-01T04:40:13.670Z,2.85
2018-04-01T04:40:14.270Z,2.89
2018-04-01T04:40:14.870Z,2.85
2018-04-01T04:40:15.469Z,2.89
2018-04-01T04:40:16.069Z,2.85
2018-04-01T04:40:16.676Z,2.82
2018-04-01T04:41:11.173Z,2.84
2018-04-01T04:41:11.745Z,2.91
2018-04-01T04:41:12.345Z,2.94
2018-04-01T04:41:12.945Z,2.88
2018-04-01T04:41:13.549Z,2.89
2018-04-01T04:41:14.144Z,2.84
2018-04-01T04:41:14.744Z,2.89
2018-04-01T04:41:15.343Z,2.82
2018-04-01T04:42:12.818Z,2.82
2018-04-01T04:42:13.391Z,2.88
2018-04-01T04:42:13.991Z,2.85
2018-04-01T04:43:08.011Z,2.82
2018-04-01T04:43:08.585Z,2.88
2018-04-01T04:43:09.184Z,2.94
2018-04-01T04:43:09.784Z,2.91
2018-04-01T04:43:10.384Z,2.91
2018-04-01T04:43:10.983Z,2.84
2018-04-01T04:43:11.584Z,2.87
2018-04-01T04:44:12.626Z,2.88
2018-04-01T04:44:13.200Z,2.88
2018-04-01T04:44:13.800Z,2.87
2018-04-01T04:44:14.399Z,2.87
2018-04-01T04:44:15.002Z,2.84
2018-04-01T04:44:15.600Z,2.92
2018-04-01T04:44:16.200Z,2.88
2018-04-01T04:44:16.802Z,2.89
2018-04-01T04:44:17.401Z,2.85
2018-04-01T04:44:17.999Z,2.85
2018-04-01T04:44:18.600Z,2.85
2018-04-01T04:44:19.200Z,2.76
2018-04-01T04:45:13.658Z,2.77
2018-04-01T04:45:14.235Z,2.82
2018-04-01T04:45:14.830Z,2.76
2018-04-01T04:45:15.431Z,2.79
2018-04-01T04:45:16.034Z,2.87
2018-04-01T04:45:16.633Z,2.91
2018-04-01T04:45:17.234Z,2.88
2018-04-01T04:45:17.834Z,2.79
2018-04-01T04:46:21.446Z,2.84
2018-04-01T04:46:22.023Z,2.82
2018-04-01T04:46:22.633Z,2.84
2018-04-01T04:46:23.220Z,2.82
2018-04-01T04:46:23.820Z,2.91
2018-04-01T04:46:24.419Z,2.84
2018-04-01T04:46:25.020Z,2.85
2018-04-01T04:46:25.618Z,2.94
2018-04-01T04:47:19.611Z,2.89
2018-04-01T04:47:20.188Z,2.87
2018-04-01T04:47:20.784Z,2.77
2018-04-01T04:47:21.383Z,2.91
2018-04-01T04:47:21.984Z,2.95
2018-04-01T04:47:22.588Z,2.85
2018-04-01T04:47:23.183Z,2.81
2018-04-01T04:48:17.672Z,2.82
2018-04-01T04:48:18.249Z,2.95
2018-04-01T04:48:18.846Z,2.85
2018-04-01T04:48:19.444Z,2.88
2018-04-01T04:48:20.044Z,2.87
2018-04-01T04:48:20.645Z,2.87
2018-04-01T04:48:21.244Z,2.82
2018-04-01T04:48:21.843Z,2.91
2018-04-01T05:07:08.384Z,2.71
2018-04-01T05:07:09.880Z,2.77
2018-04-01T05:07:10.398Z,2.67
2018-04-01T05:07:10.994Z,2.73
2018-04-01T05:08:04.498Z,2.82
2018-04-01T05:08:05.069Z,2.71
2018-04-01T05:08:05.677Z,2.79
2018-04-01T05:08:06.267Z,2.73
2018-04-01T05:08:06.866Z,2.73
2018-04-01T05:08:07.466Z,2.79
2018-04-01T05:08:08.065Z,2.71
2018-04-01T05:08:08.664Z,2.74
2018-04-01T05:09:02.146Z,2.73
2018-04-01T05:09:02.720Z,2.73
2018-04-01T05:09:03.320Z,2.76
2018-04-01T05:09:03.919Z,2.70
2018-04-01T05:09:04.518Z,2.74
2018-04-01T05:09:05.118Z,2.76
2018-04-01T05:09:05.718Z,2.73
2018-04-01T05:09:06.318Z,2.76
2018-04-01T05:09:59.801Z,2.74
2018-04-01T05:10:00.380Z,2.77
2018-04-01T05:10:00.972Z,2.74
2018-04-01T05:10:01.577Z,2.70
2018-04-01T05:10:02.187Z,2.74